アシガバート の空港の天気 - METARとTAF

アシガバート空港 ( UTAA / ASB ) - トルクメニスタン アシガバート
飛行場実況気象(Metar)
観測時間08/11 11:00 TMT (08/11 06:00 UTC)
風向・風速東南東 4m/s
視程10km以上
天気現象
なし
気温34℃
湿度25%
気圧1008hPa
METARUTAA 110600Z 11008KT 070V150 9999 NSC 34/11 Q1008 R88/70D NOSIG
過去の天気等 Google飛行場航空写真 Wunderground天気予報

過去48時間のMETAR

飛行場予報(TAF)
発表時間: 8/11 09:40 TMT (8/11 04:40 UTC)
予報対象時間: 11日11時 TMT ~ 12日11時 TMT
風向・風速東 9m/s
視程6000m
全天の4割程度の雲 雲底高度 1520m
11日11時 TMT ~ 11日17時 TMT に一時的に
風向・風速東南東 7m/s 瞬間風速 12m/s
11日23時 TMT ~ 12日5時 TMT に一時的に
風向・風速南 7m/s
TAF UTAA 110440Z 1106/1206 09018KT 6000 SCT050
TEMPO 1106/1112 12014G24KT
TEMPO 1118/1124 18014KT